createdAt,value
2017-01-28T00:00:12.906Z,55.94
2017-01-28T00:01:13.784Z,56.29
2017-01-28T00:02:13.158Z,55.71
2017-01-28T00:03:12.846Z,55.51
2017-01-28T00:04:13.641Z,55.37
2017-01-28T00:05:14.576Z,55.60
2017-01-28T00:06:12.757Z,56.23
2017-01-28T00:07:12.181Z,56.34
2017-01-28T00:08:12.146Z,56.54
2017-01-28T00:09:12.251Z,56.67
2017-01-28T00:10:12.216Z,56.71
2017-01-28T00:11:14.078Z,56.85
2017-01-28T00:12:12.698Z,56.85
2017-01-28T00:13:12.756Z,56.91
2017-01-28T00:14:12.926Z,56.91
2017-01-28T00:15:13.752Z,56.91
2017-01-28T00:16:14.036Z,56.96
2017-01-28T00:17:12.281Z,56.92
2017-01-28T00:18:13.109Z,56.92
2017-01-28T00:19:13.780Z,56.90
2017-01-28T00:20:14.286Z,56.92
2017-01-28T00:21:12.859Z,56.89
2017-01-28T00:22:14.692Z,56.91
2017-01-28T00:23:13.340Z,56.87
2017-01-28T00:24:12.554Z,56.91
2017-01-28T00:25:13.280Z,56.85
2017-01-28T00:26:13.357Z,56.85
2017-01-28T00:27:12.611Z,56.90
2017-01-28T00:28:12.812Z,56.97
2017-01-28T00:29:14.056Z,56.94
2017-01-28T00:30:12.249Z,56.91
2017-01-28T00:31:12.404Z,56.94
2017-01-28T00:32:13.342Z,56.94
2017-01-28T00:33:11.311Z,56.97
2017-01-28T00:34:12.890Z,56.99
2017-01-28T00:35:13.573Z,56.94
2017-01-28T00:36:12.643Z,56.94
2017-01-28T00:37:12.822Z,56.99
2017-01-28T00:38:13.522Z,56.93
2017-01-28T00:39:13.096Z,57.04
2017-01-28T00:40:13.037Z,57.00
2017-01-28T00:41:13.635Z,57.02
2017-01-28T00:42:12.825Z,57.05
2017-01-28T00:43:13.406Z,56.99
2017-01-28T00:44:13.664Z,57.07
2017-01-28T00:45:13.569Z,57.50
2017-01-28T00:46:12.658Z,57.49
2017-01-28T00:47:12.704Z,57.38
2017-01-28T00:48:13.129Z,57.23
2017-01-28T00:49:12.837Z,57.14
2017-01-28T00:50:13.694Z,57.02
2017-01-28T00:51:12.713Z,57.00
2017-01-28T00:52:11.915Z,57.01
2017-01-28T00:53:13.346Z,57.02
2017-01-28T00:54:13.147Z,57.00
2017-01-28T00:55:14.690Z,57.02
2017-01-28T00:56:12.754Z,57.04
2017-01-28T00:57:10.912Z,57.03
2017-01-28T00:58:12.187Z,57.06
2017-01-28T00:59:14.769Z,57.08
2017-01-28T01:00:14.599Z,57.08
2017-01-28T01:01:13.183Z,57.14
2017-01-28T01:02:09.951Z,57.10
2017-01-28T01:03:12.173Z,57.13
2017-01-28T01:04:16.213Z,57.09
2017-01-28T01:05:12.289Z,57.10
2017-01-28T01:06:11.416Z,56.99
2017-01-28T01:07:13.273Z,56.22
2017-01-28T01:08:13.954Z,56.00
2017-01-28T01:09:13.124Z,56.82
2017-01-28T01:10:14.308Z,56.97
2017-01-28T01:11:14.073Z,57.04
2017-01-28T01:12:12.580Z,57.14
2017-01-28T01:13:14.644Z,57.14
2017-01-28T01:14:16.073Z,57.12
2017-01-28T01:15:11.242Z,57.07
2017-01-28T01:16:13.026Z,56.24
2017-01-28T01:17:12.644Z,56.10
2017-01-28T01:18:13.846Z,56.02
2017-01-28T01:19:13.855Z,55.94
2017-01-28T01:20:13.235Z,55.92
2017-01-28T01:21:14.143Z,55.83
2017-01-28T01:22:13.023Z,55.89
2017-01-28T01:23:12.613Z,56.78
2017-01-28T01:24:11.723Z,56.96
2017-01-28T01:25:13.343Z,57.07
2017-01-28T01:26:11.708Z,57.11
2017-01-28T01:27:14.045Z,57.19
2017-01-28T01:28:10.832Z,57.18
2017-01-28T01:29:13.116Z,57.19
2017-01-28T01:30:12.206Z,57.24
2017-01-28T01:31:12.931Z,57.21
2017-01-28T01:32:12.674Z,57.18
2017-01-28T01:33:12.706Z,57.17
2017-01-28T01:34:13.385Z,57.20
2017-01-28T01:35:13.076Z,57.20
2017-01-28T01:36:12.911Z,57.19
2017-01-28T01:37:13.319Z,57.20
2017-01-28T01:38:14.554Z,57.17
2017-01-28T01:39:13.747Z,57.24
2017-01-28T01:40:13.883Z,57.22
2017-01-28T01:41:13.591Z,57.18
2017-01-28T01:42:15.466Z,57.20
2017-01-28T01:43:13.389Z,57.16
2017-01-28T01:44:12.381Z,57.17
2017-01-28T01:45:12.403Z,57.23
2017-01-28T01:46:13.091Z,57.17
2017-01-28T01:47:13.210Z,57.20
2017-01-28T01:48:12.437Z,57.20
2017-01-28T01:49:13.163Z,57.17
2017-01-28T01:50:12.748Z,57.22
2017-01-28T01:51:13.421Z,57.17
2017-01-28T01:52:13.649Z,57.18
2017-01-28T01:53:13.418Z,57.17
2017-01-28T01:54:13.642Z,57.15
2017-01-28T01:55:13.605Z,57.11
2017-01-28T01:56:13.762Z,57.13
2017-01-28T01:57:14.554Z,57.09
2017-01-28T01:58:13.312Z,57.11
2017-01-28T01:59:14.269Z,57.12
2017-01-28T02:00:13.363Z,57.10
2017-01-28T02:01:13.475Z,56.99
2017-01-28T02:02:12.505Z,57.12
2017-01-28T02:03:12.747Z,57.09
2017-01-28T02:04:11.162Z,57.08
2017-01-28T02:05:12.080Z,57.07
2017-01-28T02:06:12.614Z,57.04
2017-01-28T02:07:13.600Z,57.05
2017-01-28T02:08:14.075Z,57.05
2017-01-28T02:09:12.151Z,56.99
2017-01-28T02:10:12.855Z,57.04
2017-01-28T02:11:13.588Z,57.07
2017-01-28T02:12:15.181Z,56.99
2017-01-28T02:13:12.489Z,56.99
2017-01-28T02:14:12.684Z,56.98
2017-01-28T02:15:12.831Z,56.96
2017-01-28T02:16:15.297Z,56.95
2017-01-28T02:17:12.503Z,56.94
2017-01-28T02:18:14.153Z,56.96
2017-01-28T02:19:13.986Z,56.96
2017-01-28T02:20:12.166Z,56.93
2017-01-28T02:21:12.806Z,56.97
2017-01-28T02:22:13.915Z,57.00
2017-01-28T02:23:15.637Z,56.98
2017-01-28T02:24:14.072Z,56.96
2017-01-28T02:25:12.247Z,57.02
2017-01-28T02:26:11.547Z,56.98
2017-01-28T02:27:14.648Z,57.00
2017-01-28T02:28:13.382Z,56.89
2017-01-28T02:29:12.486Z,56.17
2017-01-28T02:30:13.268Z,55.91
2017-01-28T02:31:12.936Z,55.77
2017-01-28T02:32:12.987Z,55.76
2017-01-28T02:33:10.737Z,55.77
2017-01-28T02:34:12.892Z,55.72
2017-01-28T02:35:13.431Z,55.74
2017-01-28T02:36:13.085Z,55.71
2017-01-28T02:37:13.264Z,56.64
2017-01-28T02:38:12.805Z,56.79
2017-01-28T02:39:12.687Z,56.97
2017-01-28T02:40:12.950Z,57.01
2017-01-28T02:41:12.966Z,57.01
2017-01-28T02:42:12.511Z,57.04
2017-01-28T02:43:14.231Z,57.05
2017-01-28T02:44:12.115Z,57.10
2017-01-28T02:45:12.526Z,57.07
2017-01-28T02:46:14.555Z,57.14
2017-01-28T02:47:14.512Z,57.08
2017-01-28T02:48:13.160Z,57.15
2017-01-28T02:49:12.719Z,57.08
2017-01-28T02:50:12.935Z,57.10
2017-01-28T02:51:12.116Z,57.18
2017-01-28T02:52:12.328Z,57.13
2017-01-28T02:53:13.910Z,57.11
2017-01-28T02:54:14.147Z,57.25
2017-01-28T02:55:12.246Z,57.31
2017-01-28T02:56:11.128Z,57.40
2017-01-28T02:57:12.940Z,56.66
2017-01-28T02:58:12.702Z,56.58
2017-01-28T02:59:14.815Z,56.57
2017-01-28T03:00:12.919Z,56.56
2017-01-28T03:01:10.633Z,56.55
2017-01-28T03:02:12.689Z,56.66
2017-01-28T03:03:14.209Z,57.55
2017-01-28T03:04:12.972Z,57.71
2017-01-28T03:05:12.766Z,57.97
2017-01-28T03:06:13.771Z,58.03
2017-01-28T03:07:14.271Z,58.02
2017-01-28T03:08:13.327Z,57.28
2017-01-28T03:09:12.571Z,57.05
2017-01-28T03:10:13.078Z,56.90
2017-01-28T03:11:12.218Z,56.94
2017-01-28T03:12:12.242Z,56.97
2017-01-28T03:13:13.931Z,56.92
2017-01-28T03:14:13.144Z,57.00
2017-01-28T03:15:12.174Z,57.19
2017-01-28T03:16:12.160Z,57.88
2017-01-28T03:17:13.151Z,58.22
2017-01-28T03:18:12.695Z,58.14
2017-01-28T03:19:13.350Z,57.47
2017-01-28T03:20:12.522Z,58.16
2017-01-28T03:21:13.113Z,58.46
2017-01-28T03:22:12.338Z,58.41
2017-01-28T03:23:12.531Z,58.56
2017-01-28T03:24:11.736Z,58.52
2017-01-28T03:25:13.016Z,58.62
2017-01-28T03:26:12.054Z,58.57
2017-01-28T03:27:12.808Z,58.55
2017-01-28T03:28:13.395Z,58.60
2017-01-28T03:29:12.538Z,58.67
2017-01-28T03:30:12.754Z,58.75
2017-01-28T03:31:13.832Z,58.64
2017-01-28T03:32:13.672Z,58.70
2017-01-28T03:33:13.731Z,58.69
2017-01-28T03:34:13.655Z,58.79
2017-01-28T03:35:13.556Z,58.71
2017-01-28T03:36:13.279Z,58.74
2017-01-28T03:37:12.977Z,58.82
2017-01-28T03:38:12.023Z,58.78
2017-01-28T03:39:12.087Z,58.77
2017-01-28T03:40:11.522Z,58.78
2017-01-28T03:41:13.108Z,58.73
2017-01-28T03:42:12.230Z,58.78
2017-01-28T03:43:11.305Z,58.87
2017-01-28T03:44:11.357Z,58.79
2017-01-28T03:45:13.417Z,58.87
2017-01-28T03:46:12.544Z,58.94
2017-01-28T03:47:12.836Z,58.77
2017-01-28T03:48:12.680Z,58.75
2017-01-28T03:49:11.518Z,58.72
2017-01-28T03:50:13.133Z,57.95
2017-01-28T03:51:12.813Z,58.54
2017-01-28T03:52:12.972Z,58.66
2017-01-28T03:53:11.907Z,58.68
2017-01-28T03:54:14.011Z,58.66
2017-01-28T03:55:12.280Z,58.72
2017-01-28T03:56:12.912Z,58.65
2017-01-28T03:57:13.666Z,58.68
2017-01-28T03:58:13.646Z,58.70
2017-01-28T03:59:14.341Z,58.71
2017-01-28T04:00:14.336Z,58.68
2017-01-28T04:01:12.859Z,58.66
2017-01-28T04:02:11.907Z,58.74
2017-01-28T04:03:13.048Z,58.76
2017-01-28T04:04:13.112Z,58.80
2017-01-28T04:05:12.144Z,58.76
2017-01-28T04:06:11.610Z,58.84
2017-01-28T04:07:13.081Z,58.80
2017-01-28T04:08:12.313Z,58.79
2017-01-28T04:09:12.962Z,58.81
2017-01-28T04:10:13.816Z,58.80
2017-01-28T04:11:14.076Z,58.85
2017-01-28T04:12:10.425Z,58.82
2017-01-28T04:13:13.054Z,58.86
2017-01-28T04:14:13.081Z,58.80
2017-01-28T04:15:12.630Z,58.94
2017-01-28T04:16:10.071Z,58.89
2017-01-28T04:17:13.665Z,58.86
2017-01-28T04:18:12.971Z,58.82
2017-01-28T04:19:12.481Z,58.92
2017-01-28T04:20:12.527Z,58.93
2017-01-28T04:21:12.490Z,58.91
2017-01-28T04:22:13.387Z,58.95
2017-01-28T04:23:13.133Z,58.91
2017-01-28T04:24:12.816Z,58.95
2017-01-28T04:25:11.949Z,58.93
2017-01-28T04:26:12.712Z,58.93
2017-01-28T04:27:12.898Z,58.03
2017-01-28T04:28:13.968Z,57.82
2017-01-28T04:29:12.100Z,57.79
2017-01-28T04:30:13.839Z,57.75
2017-01-28T04:31:14.314Z,57.66
2017-01-28T04:32:12.964Z,58.52
2017-01-28T04:33:13.339Z,58.75
2017-01-28T04:34:12.399Z,58.83
2017-01-28T04:35:13.557Z,58.88
2017-01-28T04:36:13.600Z,58.92
2017-01-28T04:37:12.742Z,58.91
2017-01-28T04:38:15.379Z,59.04
2017-01-28T04:39:13.607Z,59.03
2017-01-28T04:40:13.300Z,59.00
2017-01-28T04:41:11.311Z,59.05
2017-01-28T04:42:11.603Z,58.97
2017-01-28T04:43:12.463Z,58.16
2017-01-28T04:44:12.327Z,58.08
2017-01-28T04:45:14.230Z,57.83
2017-01-28T04:46:12.960Z,58.12
2017-01-28T04:47:11.979Z,58.79
2017-01-28T04:48:12.049Z,59.00
2017-01-28T04:49:12.147Z,59.13
2017-01-28T04:50:13.209Z,59.19
2017-01-28T04:51:12.289Z,59.31
2017-01-28T04:52:13.429Z,59.19
2017-01-28T04:53:13.049Z,59.20
2017-01-28T04:54:11.984Z,59.28
2017-01-28T04:55:12.014Z,59.34
2017-01-28T04:56:12.679Z,59.13
2017-01-28T04:57:13.461Z,58.43
2017-01-28T04:58:13.050Z,59.11
2017-01-28T04:59:12.222Z,59.26
2017-01-28T05:00:12.947Z,59.33
2017-01-28T05:01:14.641Z,59.32
2017-01-28T05:02:13.460Z,59.32
2017-01-28T05:03:13.063Z,59.39
2017-01-28T05:04:11.194Z,59.20
2017-01-28T05:05:12.708Z,58.59
2017-01-28T05:06:14.185Z,59.33
2017-01-28T05:07:12.533Z,59.35
2017-01-28T05:08:13.351Z,59.45
2017-01-28T05:09:12.423Z,59.41
2017-01-28T05:10:12.481Z,59.40
2017-01-28T05:11:13.341Z,59.46
2017-01-28T05:12:13.167Z,59.52
2017-01-28T05:13:12.351Z,59.43
2017-01-28T05:14:12.887Z,59.38
2017-01-28T05:15:12.032Z,59.35
2017-01-28T05:16:12.151Z,59.38
2017-01-28T05:17:13.072Z,59.41
2017-01-28T05:18:13.847Z,59.41
2017-01-28T05:19:14.809Z,59.36
2017-01-28T05:20:13.041Z,59.36
2017-01-28T05:21:13.394Z,59.41
2017-01-28T05:22:12.492Z,59.34
2017-01-28T05:23:13.991Z,59.52
2017-01-28T05:24:12.689Z,59.46
2017-01-28T05:25:16.584Z,59.34
2017-01-28T05:26:17.005Z,59.31
2017-01-28T05:27:13.090Z,59.26
2017-01-28T05:28:10.630Z,59.19
2017-01-28T05:29:13.166Z,59.23
2017-01-28T05:30:13.085Z,59.23
2017-01-28T05:31:12.679Z,59.40
2017-01-28T05:32:13.351Z,59.26
2017-01-28T05:33:13.092Z,59.27
2017-01-28T05:34:12.912Z,59.20
2017-01-28T05:35:13.668Z,59.20
2017-01-28T05:36:12.804Z,59.18
2017-01-28T05:37:12.931Z,59.28
2017-01-28T05:38:12.003Z,59.18
2017-01-28T05:39:13.975Z,58.58
2017-01-28T05:40:12.594Z,58.18
2017-01-28T05:41:12.646Z,57.98
2017-01-28T05:42:13.737Z,57.90
2017-01-28T05:43:12.851Z,57.98
2017-01-28T05:44:11.769Z,58.05
2017-01-28T05:45:13.662Z,58.88
2017-01-28T05:46:14.469Z,59.27
2017-01-28T05:47:12.905Z,59.35
2017-01-28T05:48:12.993Z,59.48
2017-01-28T05:49:12.051Z,59.52
2017-01-28T05:50:12.191Z,59.58
2017-01-28T05:51:12.240Z,59.56
2017-01-28T05:52:12.922Z,59.63
2017-01-28T05:53:14.560Z,58.78
2017-01-28T05:54:12.661Z,58.59
2017-01-28T05:55:13.443Z,58.50
2017-01-28T05:56:12.520Z,58.53
2017-01-28T05:57:13.617Z,58.51
2017-01-28T05:58:12.691Z,58.47
2017-01-28T05:59:13.752Z,59.48
2017-01-28T06:00:14.726Z,59.60
2017-01-28T06:01:12.691Z,59.89
2017-01-28T06:02:12.735Z,59.79
2017-01-28T06:03:13.320Z,59.91
2017-01-28T06:04:12.531Z,59.89
2017-01-28T06:05:14.023Z,59.87
2017-01-28T06:06:12.201Z,59.97
2017-01-28T06:07:13.239Z,59.96
2017-01-28T06:08:13.732Z,60.08
2017-01-28T06:09:11.639Z,59.97
2017-01-28T06:10:12.758Z,59.10
2017-01-28T06:11:12.942Z,58.85
2017-01-28T06:12:13.451Z,58.79
2017-01-28T06:13:12.508Z,58.72
2017-01-28T06:14:13.181Z,58.80
2017-01-28T06:15:12.930Z,59.67
2017-01-28T06:16:10.515Z,59.88
2017-01-28T06:17:13.030Z,59.94
2017-01-28T06:18:12.070Z,60.33
2017-01-28T06:19:12.061Z,60.18
2017-01-28T06:20:12.861Z,60.04
2017-01-28T06:21:14.720Z,60.19
2017-01-28T06:22:12.802Z,60.08
2017-01-28T06:23:11.945Z,59.99
2017-01-28T06:24:12.758Z,60.21
2017-01-28T06:25:13.508Z,59.08
2017-01-28T06:26:13.160Z,58.88
2017-01-28T06:27:12.234Z,59.04
2017-01-28T06:28:12.979Z,59.66
2017-01-28T06:29:11.934Z,59.83
2017-01-28T06:30:12.529Z,59.86
2017-01-28T06:31:13.208Z,59.91
2017-01-28T06:32:13.630Z,59.87
2017-01-28T06:33:13.341Z,59.89
2017-01-28T06:34:14.021Z,59.91
2017-01-28T06:35:11.991Z,59.93
2017-01-28T06:36:14.900Z,59.92
2017-01-28T06:37:14.116Z,59.92
2017-01-28T06:38:12.324Z,59.94
2017-01-28T06:39:12.575Z,59.88
2017-01-28T06:40:13.388Z,59.88
2017-01-28T06:41:12.994Z,59.90
2017-01-28T06:42:11.963Z,59.94
2017-01-28T06:43:13.388Z,59.90
2017-01-28T06:44:12.544Z,59.95
2017-01-28T06:45:12.652Z,59.91
2017-01-28T06:46:12.721Z,59.90
2017-01-28T06:47:12.691Z,59.87
2017-01-28T06:48:12.877Z,59.86
2017-01-28T06:49:13.447Z,59.88
2017-01-28T06:50:13.127Z,59.92
2017-01-28T06:51:12.043Z,59.84
2017-01-28T06:52:12.156Z,59.80
2017-01-28T06:53:12.614Z,59.82
2017-01-28T06:54:12.781Z,59.90
2017-01-28T06:55:13.612Z,59.93
2017-01-28T06:56:14.542Z,60.01
2017-01-28T06:57:11.681Z,60.07
2017-01-28T06:58:13.153Z,59.19
2017-01-28T06:59:12.817Z,59.98
2017-01-28T07:00:14.443Z,60.19
2017-01-28T07:01:13.325Z,60.26
2017-01-28T07:02:13.016Z,60.29
2017-01-28T07:03:12.461Z,60.23
2017-01-28T07:04:12.500Z,60.26
2017-01-28T07:05:14.134Z,60.28
2017-01-28T07:06:12.923Z,60.21
2017-01-28T07:07:13.801Z,60.29
2017-01-28T07:08:14.271Z,60.28
2017-01-28T07:09:12.382Z,60.31
2017-01-28T07:10:13.191Z,60.26
2017-01-28T07:11:12.186Z,60.33
2017-01-28T07:12:12.318Z,60.28
2017-01-28T07:13:12.289Z,60.34
2017-01-28T07:14:12.835Z,60.29
2017-01-28T07:15:13.525Z,60.34
2017-01-28T07:16:13.150Z,60.35
2017-01-28T07:17:13.218Z,60.36
2017-01-28T07:18:12.291Z,60.28
2017-01-28T07:19:12.299Z,60.36
2017-01-28T07:20:13.307Z,60.51
2017-01-28T07:21:12.497Z,60.38
2017-01-28T07:22:13.070Z,60.26
2017-01-28T07:23:11.989Z,60.31
2017-01-28T07:24:12.696Z,60.33
2017-01-28T07:25:12.693Z,60.41
2017-01-28T07:26:13.478Z,60.48
2017-01-28T07:27:13.039Z,60.42
2017-01-28T07:28:12.266Z,60.51
2017-01-28T07:29:11.403Z,60.41
2017-01-28T07:30:12.420Z,60.44
2017-01-28T07:31:11.444Z,60.49
2017-01-28T07:32:13.942Z,60.43
2017-01-28T07:33:10.737Z,60.45
2017-01-28T07:34:09.359Z,60.51
2017-01-28T07:35:11.418Z,60.33
2017-01-28T07:36:12.355Z,59.51
2017-01-28T07:37:13.660Z,59.47
2017-01-28T07:38:12.750Z,59.23
2017-01-28T07:39:14.648Z,59.25
2017-01-28T07:40:13.386Z,59.24
2017-01-28T07:41:12.900Z,60.12
2017-01-28T07:42:12.962Z,60.29
2017-01-28T07:43:12.676Z,60.41
2017-01-28T07:44:13.399Z,60.48
2017-01-28T07:45:12.516Z,60.49
2017-01-28T07:46:13.170Z,60.58
2017-01-28T07:47:12.804Z,60.51
2017-01-28T07:48:13.452Z,60.59
2017-01-28T07:49:13.115Z,60.44
2017-01-28T07:50:12.961Z,60.56
2017-01-28T07:51:12.646Z,60.53
2017-01-28T07:52:13.206Z,60.63
2017-01-28T07:53:13.007Z,60.57
2017-01-28T07:54:13.652Z,60.60
2017-01-28T07:55:12.711Z,60.55
2017-01-28T07:56:13.634Z,60.52
2017-01-28T07:57:11.631Z,60.58
2017-01-28T07:58:12.543Z,59.65
2017-01-28T07:59:13.349Z,59.37
2017-01-28T08:00:13.180Z,59.62
2017-01-28T08:01:13.072Z,60.18
2017-01-28T08:02:12.231Z,60.33
2017-01-28T08:03:11.408Z,60.47
2017-01-28T08:04:12.952Z,60.45
2017-01-28T08:05:13.673Z,60.50
2017-01-28T08:06:11.755Z,60.53
2017-01-28T08:07:12.890Z,60.54
2017-01-28T08:08:11.106Z,60.67
2017-01-28T08:09:11.308Z,60.41
2017-01-28T08:10:13.797Z,59.58
2017-01-28T08:11:11.890Z,59.42
2017-01-28T08:12:13.841Z,60.27
2017-01-28T08:13:13.648Z,60.42
2017-01-28T08:14:13.275Z,60.48
2017-01-28T08:15:13.053Z,60.32
2017-01-28T08:16:12.212Z,59.62
2017-01-28T08:17:12.928Z,59.24
2017-01-28T08:18:13.797Z,60.15
2017-01-28T08:19:13.362Z,60.31
2017-01-28T08:20:12.950Z,60.37
2017-01-28T08:21:12.038Z,60.40
2017-01-28T08:22:12.587Z,60.48
2017-01-28T08:23:14.455Z,60.45
2017-01-28T08:24:13.141Z,60.35
2017-01-28T08:25:10.674Z,60.41
2017-01-28T08:26:13.177Z,60.22
2017-01-28T08:27:12.876Z,59.50
2017-01-28T08:28:14.429Z,59.21
2017-01-28T08:29:12.535Z,59.24
2017-01-28T08:30:13.261Z,59.12
2017-01-28T08:31:12.960Z,59.41
2017-01-28T08:32:12.172Z,60.07
2017-01-28T08:33:13.575Z,60.18
2017-01-28T08:34:13.182Z,60.30
2017-01-28T08:35:12.779Z,60.39
2017-01-28T08:36:12.836Z,60.34
2017-01-28T08:37:13.527Z,60.46
2017-01-28T08:38:12.706Z,60.42
2017-01-28T08:39:12.760Z,60.37
2017-01-28T08:40:12.901Z,60.32
2017-01-28T08:41:13.837Z,60.38
2017-01-28T08:42:13.460Z,60.33
2017-01-28T08:43:15.297Z,60.34
2017-01-28T08:44:12.832Z,60.40
2017-01-28T08:45:12.975Z,60.30
2017-01-28T08:46:12.612Z,60.32
2017-01-28T08:47:11.863Z,59.45
2017-01-28T08:48:13.469Z,59.15
2017-01-28T08:49:14.140Z,59.09
2017-01-28T08:50:12.877Z,59.06
2017-01-28T08:51:12.978Z,59.09
2017-01-28T08:52:11.960Z,59.06
2017-01-28T08:53:12.771Z,60.10
2017-01-28T08:54:13.392Z,60.32
2017-01-28T08:55:12.906Z,60.43
2017-01-28T08:56:13.643Z,60.36
2017-01-28T08:57:13.405Z,60.37
2017-01-28T08:58:14.052Z,60.32
2017-01-28T08:59:12.767Z,60.31
2017-01-28T09:00:12.929Z,59.46
2017-01-28T09:01:12.201Z,59.29
2017-01-28T09:02:12.242Z,59.56
2017-01-28T09:03:12.937Z,60.27
2017-01-28T09:04:12.571Z,60.44
2017-01-28T09:05:12.736Z,60.67
2017-01-28T09:06:11.669Z,60.69
2017-01-28T09:07:13.485Z,60.70
2017-01-28T09:08:12.562Z,60.79
2017-01-28T09:09:13.168Z,60.85
2017-01-28T09:10:13.831Z,60.83
2017-01-28T09:11:12.948Z,60.88
2017-01-28T09:12:11.936Z,60.97
2017-01-28T09:13:12.741Z,60.96
2017-01-28T09:14:13.490Z,60.89
2017-01-28T09:15:13.098Z,60.73
2017-01-28T09:16:12.886Z,59.89
2017-01-28T09:17:13.111Z,59.62
2017-01-28T09:18:13.023Z,60.48
2017-01-28T09:19:12.151Z,60.64
2017-01-28T09:20:12.119Z,60.76
2017-01-28T09:21:13.071Z,60.80
2017-01-28T09:22:12.228Z,60.81
2017-01-28T09:23:13.323Z,60.79
2017-01-28T09:24:11.122Z,60.74
2017-01-28T09:25:13.392Z,60.87
2017-01-28T09:26:12.401Z,60.55
2017-01-28T09:27:12.316Z,60.47
2017-01-28T09:28:14.501Z,60.38
2017-01-28T09:29:13.337Z,60.61
2017-01-28T09:30:11.617Z,60.88
2017-01-28T09:31:13.167Z,59.91
2017-01-28T09:32:12.382Z,59.46
2017-01-28T09:33:14.072Z,59.73
2017-01-28T09:34:13.861Z,60.54
2017-01-28T09:35:13.649Z,60.74
2017-01-28T09:36:13.290Z,60.93
2017-01-28T09:37:13.235Z,60.98
2017-01-28T09:38:12.437Z,61.05
2017-01-28T09:39:11.451Z,61.08
2017-01-28T09:40:14.131Z,61.18
2017-01-28T09:41:12.583Z,61.20
2017-01-28T09:42:11.720Z,61.26
2017-01-28T09:43:12.765Z,60.29
2017-01-28T09:44:12.931Z,60.08
2017-01-28T09:45:14.719Z,60.29
2017-01-28T09:46:13.330Z,60.97
2017-01-28T09:47:11.339Z,61.17
2017-01-28T09:48:12.407Z,61.76
2017-01-28T09:49:13.342Z,62.10
2017-01-28T09:50:12.441Z,62.45
2017-01-28T09:51:11.743Z,62.63
2017-01-28T09:52:13.261Z,62.51
2017-01-28T09:53:12.842Z,62.41
2017-01-28T09:54:12.149Z,62.20
2017-01-28T09:55:12.664Z,61.20
2017-01-28T09:56:11.271Z,62.05
2017-01-28T09:57:12.299Z,61.87
2017-01-28T09:58:13.999Z,62.02
2017-01-28T09:59:11.949Z,62.01
2017-01-28T10:00:12.002Z,61.94
2017-01-28T10:01:13.749Z,62.15
2017-01-28T10:02:13.329Z,62.18
2017-01-28T10:03:13.062Z,62.13
2017-01-28T10:04:12.622Z,62.02
2017-01-28T10:05:11.581Z,61.94
2017-01-28T10:06:10.390Z,61.90
2017-01-28T10:07:13.031Z,61.86
2017-01-28T10:08:12.087Z,61.71
2017-01-28T10:09:12.481Z,61.74
2017-01-28T10:10:13.115Z,61.78
2017-01-28T10:11:12.491Z,61.45
2017-01-28T10:12:12.666Z,61.61
2017-01-28T10:13:12.779Z,61.37
2017-01-28T10:14:14.384Z,57.73
2017-01-28T10:15:13.219Z,54.75
2017-01-28T10:16:12.813Z,56.33
2017-01-28T10:17:13.450Z,60.15
2017-01-28T10:18:12.557Z,58.83
2017-01-28T10:19:14.380Z,58.43
2017-01-28T10:20:13.339Z,58.08
2017-01-28T10:21:13.388Z,60.17
2017-01-28T10:22:10.606Z,60.14
2017-01-28T10:23:11.506Z,58.85
2017-01-28T10:24:12.589Z,58.53
2017-01-28T10:25:12.753Z,58.34
2017-01-28T10:26:13.345Z,58.91
2017-01-28T10:27:13.172Z,59.13
2017-01-28T10:28:12.955Z,59.23
2017-01-28T10:29:12.643Z,58.88
2017-01-28T10:30:12.728Z,58.12
2017-01-28T10:31:13.501Z,57.84
2017-01-28T10:32:12.450Z,58.87
2017-01-28T10:33:14.088Z,58.78
2017-01-28T10:34:12.702Z,58.96
2017-01-28T10:35:14.609Z,58.83
2017-01-28T10:36:13.176Z,58.92
2017-01-28T10:37:12.627Z,59.12
2017-01-28T10:38:13.387Z,59.03
2017-01-28T10:39:13.041Z,59.07
2017-01-28T10:40:12.728Z,59.39
2017-01-28T10:41:12.956Z,59.25
2017-01-28T10:42:12.396Z,59.10
2017-01-28T10:43:13.334Z,59.05
2017-01-28T10:44:12.359Z,59.20
2017-01-28T10:45:13.058Z,59.33
2017-01-28T10:46:12.246Z,59.42
2017-01-28T10:47:12.818Z,59.17
2017-01-28T10:48:14.251Z,59.31
2017-01-28T10:49:13.104Z,59.17
2017-01-28T10:50:12.216Z,59.14
2017-01-28T10:51:12.808Z,59.17
2017-01-28T10:52:11.733Z,59.23
2017-01-28T10:53:13.460Z,58.52
2017-01-28T10:54:12.259Z,58.19
2017-01-28T10:55:12.277Z,57.92
2017-01-28T10:56:13.958Z,57.94
2017-01-28T10:57:12.385Z,58.25
2017-01-28T10:58:12.832Z,58.41
2017-01-28T10:59:13.413Z,58.25
2017-01-28T11:00:12.438Z,58.59
2017-01-28T11:01:12.531Z,59.17
2017-01-28T11:02:13.226Z,59.17
2017-01-28T11:03:12.845Z,59.39
2017-01-28T11:04:13.594Z,59.59
2017-01-28T11:05:12.516Z,59.58
2017-01-28T11:06:13.694Z,59.63
2017-01-28T11:07:12.909Z,59.68
2017-01-28T11:08:13.514Z,59.60
2017-01-28T11:09:13.562Z,59.45
2017-01-28T11:10:14.399Z,59.67
2017-01-28T11:11:12.762Z,59.71
2017-01-28T11:12:12.926Z,59.55
2017-01-28T11:13:12.932Z,59.64
2017-01-28T11:14:12.004Z,59.67
2017-01-28T11:15:11.968Z,59.83
2017-01-28T11:16:12.065Z,59.72
2017-01-28T11:17:12.713Z,59.81
2017-01-28T11:18:13.420Z,59.91
2017-01-28T11:19:11.508Z,59.93
2017-01-28T11:20:13.070Z,59.82
2017-01-28T11:21:12.229Z,59.74
2017-01-28T11:22:11.412Z,59.66
2017-01-28T11:23:12.960Z,59.66
2017-01-28T11:24:11.992Z,59.59
2017-01-28T11:25:11.958Z,55.50
2017-01-28T11:26:12.616Z,56.33
2017-01-28T11:27:13.179Z,53.43
2017-01-28T11:28:12.904Z,55.01
2017-01-28T11:29:13.008Z,57.28
2017-01-28T11:30:13.767Z,58.51
2017-01-28T11:31:12.839Z,59.16
2017-01-28T11:32:13.566Z,59.43
2017-01-28T11:33:13.104Z,59.36
2017-01-28T11:34:12.370Z,59.47
2017-01-28T11:35:12.572Z,59.53
2017-01-28T11:36:13.283Z,59.46
2017-01-28T11:37:10.604Z,59.40
2017-01-28T11:38:14.437Z,59.32
2017-01-28T11:39:12.473Z,59.26
2017-01-28T11:40:13.182Z,58.99
2017-01-28T11:41:12.818Z,58.37
2017-01-28T11:42:14.454Z,58.78
2017-01-28T11:43:12.998Z,58.88
2017-01-28T11:44:12.844Z,58.93
2017-01-28T11:45:13.644Z,58.88
2017-01-28T11:46:12.770Z,58.86
2017-01-28T11:47:12.651Z,58.85
2017-01-28T11:48:12.717Z,58.86
2017-01-28T11:49:14.321Z,58.87
2017-01-28T11:50:12.449Z,58.66
2017-01-28T11:51:13.060Z,58.61
2017-01-28T11:52:12.633Z,58.56
2017-01-28T11:53:14.939Z,59.04
2017-01-28T11:54:12.091Z,59.19
2017-01-28T11:55:11.442Z,59.26
2017-01-28T11:56:13.355Z,59.06
2017-01-28T11:57:12.508Z,59.09
2017-01-28T11:58:12.545Z,59.40
2017-01-28T11:59:13.438Z,59.00
2017-01-28T12:00:12.453Z,58.84
2017-01-28T12:01:11.429Z,58.95
2017-01-28T12:02:12.592Z,58.05
2017-01-28T12:03:13.323Z,57.89
2017-01-28T12:04:12.863Z,58.65
2017-01-28T12:05:13.771Z,58.79
2017-01-28T12:06:11.174Z,58.97
2017-01-28T12:07:13.910Z,59.01
2017-01-28T12:08:13.123Z,58.81
2017-01-28T12:09:12.121Z,58.71
2017-01-28T12:10:11.982Z,58.87
2017-01-28T12:11:13.627Z,59.04
2017-01-28T12:12:12.575Z,58.89
2017-01-28T12:13:12.870Z,59.03
2017-01-28T12:14:13.622Z,59.04
2017-01-28T12:15:13.259Z,59.14
2017-01-28T12:16:12.716Z,58.49
2017-01-28T12:17:11.162Z,59.01
2017-01-28T12:18:12.859Z,59.16
2017-01-28T12:19:13.636Z,59.38
2017-01-28T12:20:12.516Z,59.47
2017-01-28T12:21:11.503Z,59.44
2017-01-28T12:22:12.470Z,59.43
2017-01-28T12:23:13.935Z,59.38
2017-01-28T12:24:12.509Z,59.38
2017-01-28T12:25:13.239Z,59.44
2017-01-28T12:26:12.933Z,59.36
2017-01-28T12:27:14.473Z,59.36
2017-01-28T12:28:12.572Z,59.31
2017-01-28T12:29:11.772Z,59.28
2017-01-28T12:30:12.755Z,58.37
2017-01-28T12:31:13.448Z,58.20
2017-01-28T12:32:12.454Z,58.07
2017-01-28T12:33:12.427Z,58.03
2017-01-28T12:34:12.828Z,57.91
2017-01-28T12:35:12.993Z,57.92
2017-01-28T12:36:14.839Z,57.95
2017-01-28T12:37:13.514Z,57.95
2017-01-28T12:38:14.110Z,58.91
2017-01-28T12:39:12.873Z,59.12
2017-01-28T12:40:13.580Z,59.11
2017-01-28T12:41:12.705Z,59.29
2017-01-28T12:42:10.841Z,59.27
2017-01-28T12:43:12.652Z,58.98
2017-01-28T12:44:12.737Z,58.91
2017-01-28T12:45:13.958Z,58.98
2017-01-28T12:46:12.667Z,57.99
2017-01-28T12:47:13.725Z,57.36
2017-01-28T12:48:12.845Z,58.50
2017-01-28T12:49:12.788Z,58.32
2017-01-28T12:50:12.948Z,58.68
2017-01-28T12:51:10.743Z,58.76
2017-01-28T12:52:12.023Z,57.54